createdAt,value
2023-03-17T00:01:56.466Z,73.86
2023-03-17T00:04:26.384Z,74.01
2023-03-17T00:06:57.012Z,74.18
2023-03-17T00:09:26.076Z,73.75
2023-03-17T00:11:54.977Z,73.49
2023-03-17T00:14:24.202Z,74.44
2023-03-17T00:16:54.070Z,73.86
2023-03-17T00:19:31.455Z,74.01
2023-03-17T00:22:02.338Z,73.35
2023-03-17T00:24:32.069Z,74.68
2023-03-17T00:27:01.177Z,73.94
2023-03-17T00:29:30.670Z,74.49
2023-03-17T00:32:00.364Z,74.50
2023-03-17T00:34:30.179Z,74.39
2023-03-17T00:36:59.182Z,74.27
2023-03-17T00:39:29.627Z,74.14
2023-03-17T00:41:58.861Z,73.87
2023-03-17T00:44:27.992Z,74.48
2023-03-17T00:46:59.357Z,74.32
2023-03-17T00:49:30.288Z,73.69
2023-03-17T00:51:59.234Z,74.83
2023-03-17T00:54:29.616Z,73.65
2023-03-17T00:57:01.410Z,74.07
2023-03-17T00:59:31.128Z,74.75
2023-03-17T01:01:59.892Z,74.08
2023-03-17T01:04:28.394Z,73.55
2023-03-17T01:06:57.232Z,73.07
2023-03-17T01:09:27.215Z,73.72
2023-03-17T01:11:57.643Z,73.79
2023-03-17T01:14:26.528Z,73.99
2023-03-17T01:16:55.458Z,73.45
2023-03-17T01:19:24.352Z,73.01
2023-03-17T01:21:53.069Z,73.02
2023-03-17T01:24:21.892Z,73.39
2023-03-17T01:26:51.341Z,73.82
2023-03-17T01:29:21.952Z,73.89
2023-03-17T01:31:50.803Z,73.62
2023-03-17T01:34:19.707Z,73.59
2023-03-17T01:36:48.809Z,74.01
2023-03-17T01:39:18.247Z,73.47
2023-03-17T01:41:47.341Z,73.29
2023-03-17T01:44:17.150Z,73.91
2023-03-17T01:46:47.756Z,73.97
2023-03-17T01:49:19.662Z,74.10
2023-03-17T01:51:53.368Z,74.10
2023-03-17T01:54:24.864Z,73.67
2023-03-17T01:56:55.641Z,73.44
2023-03-17T01:59:28.126Z,72.87
2023-03-17T02:02:03.051Z,72.85
2023-03-17T02:04:32.789Z,72.79
2023-03-17T02:07:02.834Z,73.01
2023-03-17T02:09:33.316Z,72.69
2023-03-17T02:12:03.213Z,72.49
2023-03-17T02:14:32.835Z,71.58
2023-03-17T02:17:03.153Z,72.62
2023-03-17T02:19:32.352Z,72.56
2023-03-17T02:22:02.842Z,72.83
2023-03-17T02:24:33.577Z,72.67
2023-03-17T02:27:05.880Z,72.86
2023-03-17T02:29:36.300Z,72.16
2023-03-17T02:32:05.677Z,72.99
2023-03-17T02:34:36.905Z,72.58
2023-03-17T02:37:09.643Z,72.38
2023-03-17T02:39:38.290Z,71.98
2023-03-17T02:42:07.868Z,72.22
2023-03-17T02:44:36.533Z,72.20
2023-03-17T02:47:05.110Z,72.63
2023-03-17T02:49:34.720Z,71.96
2023-03-17T02:52:03.091Z,72.16
2023-03-17T02:54:33.416Z,71.44
2023-03-17T02:57:02.499Z,71.37
2023-03-17T02:59:31.212Z,71.79
2023-03-17T03:01:59.790Z,71.35
2023-03-17T03:04:28.791Z,71.06
2023-03-17T03:06:58.013Z,71.12
2023-03-17T03:09:27.147Z,71.71
2023-03-17T03:11:57.627Z,71.55
2023-03-17T03:14:26.350Z,72.41
2023-03-17T03:16:55.188Z,71.56
2023-03-17T03:19:24.702Z,70.74
2023-03-17T03:21:53.984Z,70.59
2023-03-17T03:24:23.090Z,71.24
2023-03-17T03:26:52.194Z,70.36
2023-03-17T03:29:22.884Z,71.56
2023-03-17T03:31:52.134Z,70.68
2023-03-17T03:34:21.022Z,70.38
2023-03-17T03:36:49.926Z,69.04
2023-03-17T03:39:18.638Z,69.05
2023-03-17T03:41:47.170Z,69.17
2023-03-17T03:44:16.472Z,68.08
2023-03-17T03:46:47.102Z,68.43
2023-03-17T03:49:16.121Z,67.90
2023-03-17T03:51:44.548Z,67.56
2023-03-17T03:54:12.867Z,68.28
2023-03-17T03:56:41.950Z,68.64
2023-03-17T03:59:11.523Z,69.01
2023-03-17T04:01:40.508Z,68.80
2023-03-17T04:04:10.666Z,69.37
2023-03-17T04:06:39.858Z,68.79
2023-03-17T04:09:09.492Z,67.02
2023-03-17T04:11:38.305Z,67.79
2023-03-17T04:14:07.923Z,66.79
2023-03-17T04:16:37.185Z,67.16
2023-03-17T04:19:05.881Z,66.36
2023-03-17T04:21:36.084Z,66.03
2023-03-17T04:24:05.488Z,65.21
2023-03-17T04:26:34.268Z,65.56
2023-03-17T04:29:03.007Z,66.01
2023-03-17T04:31:31.992Z,65.57
2023-03-17T04:34:00.745Z,65.46
2023-03-17T04:36:29.642Z,64.77
2023-03-17T04:39:00.365Z,64.47
2023-03-17T04:41:29.316Z,63.41
2023-03-17T04:43:57.940Z,63.08
2023-03-17T04:46:27.045Z,63.65
2023-03-17T04:48:56.245Z,63.33
2023-03-17T04:51:25.333Z,64.01
2023-03-17T04:53:54.132Z,63.63
2023-03-17T04:56:24.548Z,63.12
2023-03-17T04:58:53.348Z,62.84
2023-03-17T05:01:22.471Z,61.82
2023-03-17T05:03:51.332Z,63.34
2023-03-17T05:06:20.135Z,63.23
2023-03-17T05:08:49.125Z,62.21
2023-03-17T05:11:17.921Z,62.32
2023-03-17T05:13:48.201Z,61.03
2023-03-17T05:16:17.750Z,62.06
2023-03-17T05:18:47.352Z,61.18
2023-03-17T05:21:16.552Z,61.27
2023-03-17T05:23:45.429Z,60.10
2023-03-17T05:26:14.449Z,60.17
2023-03-17T05:28:43.342Z,59.66
2023-03-17T05:31:13.973Z,59.09
2023-03-17T05:33:43.782Z,60.17
2023-03-17T05:36:12.733Z,59.76
2023-03-17T05:38:42.258Z,59.28
2023-03-17T05:41:10.851Z,58.68
2023-03-17T05:43:39.943Z,58.86
2023-03-17T05:46:09.585Z,59.75
2023-03-17T05:48:39.362Z,57.73
2023-03-17T05:51:08.191Z,58.36
2023-03-17T05:53:37.668Z,59.46
2023-03-17T05:56:06.692Z,59.31
2023-03-17T05:58:35.353Z,58.67
2023-03-17T06:01:03.733Z,58.05
2023-03-17T06:03:33.064Z,58.62
2023-03-17T06:06:04.055Z,58.23
2023-03-17T06:08:33.561Z,57.89
2023-03-17T06:11:02.879Z,57.10
2023-03-17T06:13:31.857Z,56.82
2023-03-17T06:16:01.064Z,56.29
2023-03-17T06:18:30.896Z,56.59
2023-03-17T06:21:00.476Z,55.87
2023-03-17T06:23:31.721Z,55.26
2023-03-17T06:26:00.408Z,55.11
2023-03-17T06:28:29.616Z,55.43
2023-03-17T06:30:58.258Z,55.26
2023-03-17T06:33:27.710Z,55.57
2023-03-17T06:35:59.077Z,54.88
2023-03-17T06:38:28.195Z,54.42
2023-03-17T06:40:58.092Z,53.30
2023-03-17T06:43:26.866Z,53.63
2023-03-17T06:45:55.330Z,52.93
2023-03-17T06:48:25.036Z,53.77
2023-03-17T06:50:53.886Z,53.08
2023-03-17T06:53:22.772Z,54.09
2023-03-17T06:55:51.783Z,54.07
2023-03-17T06:58:21.941Z,52.23
2023-03-17T07:00:53.703Z,53.75
2023-03-17T07:03:24.187Z,53.50
2023-03-17T07:05:52.906Z,52.91
2023-03-17T07:08:22.295Z,52.17
2023-03-17T07:10:51.686Z,52.31
2023-03-17T07:13:22.570Z,53.77
2023-03-17T07:15:53.347Z,52.58
2023-03-17T07:18:23.975Z,52.04
2023-03-17T07:20:52.826Z,50.97
2023-03-17T07:23:23.189Z,51.36
2023-03-17T07:25:52.032Z,52.16
2023-03-17T07:28:22.406Z,51.30
2023-03-17T07:30:51.247Z,51.26
2023-03-17T07:33:21.569Z,49.81
2023-03-17T07:35:50.573Z,50.64
2023-03-17T07:38:20.675Z,51.37
2023-03-17T07:40:50.306Z,50.80
2023-03-17T07:43:19.294Z,48.83
2023-03-17T07:45:49.462Z,49.88
2023-03-17T07:48:18.455Z,48.20
2023-03-17T07:50:47.690Z,48.72
2023-03-17T07:53:16.018Z,49.71
2023-03-17T07:55:44.183Z,48.20
2023-03-17T07:58:15.188Z,48.33
2023-03-17T08:00:44.374Z,49.54
2023-03-17T08:03:14.656Z,48.70
2023-03-17T08:05:43.382Z,45.56
2023-03-17T08:08:12.897Z,47.50
2023-03-17T08:10:41.512Z,47.44
2023-03-17T08:13:10.170Z,48.05
2023-03-17T08:15:38.973Z,46.74
2023-03-17T08:18:07.458Z,45.46
2023-03-17T08:20:38.147Z,44.35
2023-03-17T08:23:06.932Z,48.25
2023-03-17T08:25:35.464Z,46.31
2023-03-17T08:28:04.966Z,45.21
2023-03-17T08:30:35.002Z,44.82
2023-03-17T08:33:04.413Z,41.84
2023-03-17T08:35:33.897Z,44.58
2023-03-17T08:38:04.119Z,44.37
2023-03-17T08:40:32.770Z,43.36
2023-03-17T08:43:01.752Z,42.50
2023-03-17T08:45:30.863Z,40.25
2023-03-17T08:47:59.651Z,43.01
2023-03-17T08:50:28.362Z,42.39
2023-03-17T08:52:57.459Z,40.42
2023-03-17T08:55:27.778Z,41.14
2023-03-17T08:57:56.521Z,42.14
2023-03-17T09:00:25.563Z,42.69
2023-03-17T09:02:54.577Z,42.98
2023-03-17T09:05:22.844Z,41.65
2023-03-17T09:07:51.743Z,42.67
2023-03-17T09:10:23.798Z,42.99
2023-03-17T09:12:54.743Z,43.45
2023-03-17T09:15:23.098Z,42.73
2023-03-17T09:17:52.424Z,42.25
2023-03-17T09:20:22.460Z,42.01
2023-03-17T09:22:51.426Z,42.30
2023-03-17T09:25:20.946Z,42.39
2023-03-17T09:27:49.917Z,43.22
2023-03-17T09:30:20.653Z,43.28
2023-03-17T09:32:49.507Z,44.18
2023-03-17T09:35:18.031Z,43.32
2023-03-17T09:37:46.508Z,44.31
2023-03-17T09:40:17.708Z,42.89
2023-03-17T09:42:54.956Z,43.39
2023-03-17T09:45:30.555Z,42.82
2023-03-17T09:48:05.040Z,43.25
2023-03-17T09:50:37.495Z,43.94
2023-03-17T09:53:06.774Z,43.52
2023-03-17T09:55:36.709Z,43.24
2023-03-17T09:58:06.214Z,43.04
2023-03-17T10:00:36.734Z,41.62
2023-03-17T10:03:05.327Z,41.30
2023-03-17T10:05:37.051Z,40.85
2023-03-17T10:08:28.893Z,41.53
2023-03-17T10:11:03.455Z,40.31
2023-03-17T10:13:38.644Z,39.38
2023-03-17T10:16:11.263Z,39.73
2023-03-17T10:18:43.303Z,38.90
2023-03-17T10:21:15.389Z,34.96
2023-03-17T10:23:44.496Z,33.94
2023-03-17T10:26:22.054Z,33.20
2023-03-17T10:28:50.647Z,31.16
2023-03-17T10:31:22.155Z,31.13
2023-03-17T10:33:52.849Z,31.69
2023-03-17T10:36:34.840Z,31.12
2023-03-17T10:39:05.811Z,30.61
2023-03-17T10:41:36.208Z,30.72
2023-03-17T10:44:09.811Z,28.65
2023-03-17T10:46:40.774Z,30.25
2023-03-17T10:49:11.075Z,31.08
2023-03-17T10:51:40.827Z,31.35
2023-03-17T10:54:11.321Z,31.71
2023-03-17T10:56:42.692Z,30.95
2023-03-17T10:59:18.962Z,32.89
2023-03-17T11:01:54.381Z,31.51
2023-03-17T11:04:29.220Z,30.83
2023-03-17T11:06:58.500Z,28.61
2023-03-17T11:09:29.330Z,31.47
2023-03-17T11:12:03.018Z,29.46
2023-03-17T11:14:31.570Z,29.05
2023-03-17T11:17:02.960Z,28.73
2023-03-17T11:19:37.669Z,29.56
2023-03-17T11:22:10.362Z,29.68
2023-03-17T11:24:45.597Z,30.52
2023-03-17T11:27:18.121Z,27.62
2023-03-17T11:29:53.300Z,30.50
2023-03-17T11:32:28.490Z,28.66
2023-03-17T11:35:04.756Z,27.77
2023-03-17T11:37:42.557Z,30.40
2023-03-17T11:40:16.815Z,31.90
2023-03-17T11:42:49.498Z,30.03
2023-03-17T11:45:22.905Z,32.79
2023-03-17T11:48:00.962Z,32.84
2023-03-17T11:50:32.158Z,34.01
2023-03-17T11:53:07.396Z,33.88
2023-03-17T11:55:40.645Z,33.94
2023-03-17T11:58:13.721Z,33.75
2023-03-17T12:00:46.268Z,34.58
2023-03-17T12:03:19.425Z,34.21
2023-03-17T12:05:51.647Z,33.77
2023-03-17T12:08:24.649Z,33.18
2023-03-17T12:10:54.806Z,34.59
2023-03-17T12:13:24.660Z,34.24
2023-03-17T12:15:55.834Z,33.97
2023-03-17T12:18:31.201Z,32.97
2023-03-17T12:21:02.037Z,32.46
2023-03-17T12:23:34.335Z,33.01
2023-03-17T12:26:06.216Z,33.09
2023-03-17T12:28:37.996Z,33.10
2023-03-17T12:31:08.296Z,30.68
2023-03-17T12:33:44.071Z,32.35
2023-03-17T12:36:16.358Z,32.46
2023-03-17T12:38:47.453Z,31.31
2023-03-17T12:41:25.189Z,31.85
2023-03-17T12:44:02.411Z,31.86
2023-03-17T12:46:49.434Z,31.43
2023-03-17T12:49:37.126Z,31.99
2023-03-17T12:52:14.970Z,30.16
2023-03-17T12:54:48.208Z,30.96
2023-03-17T12:57:19.357Z,30.94
2023-03-17T12:59:49.328Z,29.97
2023-03-17T13:02:22.145Z,29.99
2023-03-17T13:04:58.216Z,30.52
2023-03-17T13:07:28.711Z,31.14
2023-03-17T13:10:18.991Z,31.12
2023-03-17T13:13:05.935Z,30.28
2023-03-17T13:16:04.796Z,30.37
2023-03-17T13:18:53.924Z,31.40
2023-03-17T13:21:29.210Z,29.61
2023-03-17T13:24:01.533Z,29.64
2023-03-17T13:26:48.286Z,29.84
2023-03-17T13:29:25.122Z,28.75
2023-03-17T13:31:53.855Z,27.99
2023-03-17T13:34:22.652Z,28.71
2023-03-17T13:36:57.982Z,28.21
2023-03-17T13:39:46.353Z,27.75
2023-03-17T13:42:29.461Z,27.22
2023-03-17T13:45:13.417Z,27.10
2023-03-17T13:47:43.479Z,26.06
2023-03-17T13:50:16.018Z,26.59
2023-03-17T13:52:48.670Z,27.58
2023-03-17T13:55:34.715Z,26.91
2023-03-17T13:58:18.278Z,27.25
2023-03-17T14:00:49.251Z,26.23
2023-03-17T14:03:20.967Z,26.58
2023-03-17T14:05:50.861Z,25.60
2023-03-17T14:08:23.909Z,27.16
2023-03-17T14:10:54.954Z,26.98
2023-03-17T14:13:25.796Z,25.68
2023-03-17T14:15:57.340Z,25.58
2023-03-17T14:18:32.175Z,26.16
2023-03-17T14:21:02.415Z,25.88
2023-03-17T14:23:32.517Z,26.34
2023-03-17T14:26:01.108Z,26.51
2023-03-17T14:28:31.109Z,26.65
2023-03-17T14:31:01.611Z,27.10
2023-03-17T14:33:30.963Z,26.51
2023-03-17T14:36:00.219Z,26.54
2023-03-17T14:38:30.275Z,26.95
2023-03-17T14:41:04.746Z,27.33
2023-03-17T14:43:33.378Z,26.67
2023-03-17T14:46:03.043Z,27.28
2023-03-17T14:48:33.200Z,28.08
2023-03-17T14:51:06.033Z,27.50
2023-03-17T14:53:36.053Z,26.77
2023-03-17T14:56:06.277Z,27.79
2023-03-17T14:58:38.203Z,28.26
2023-03-17T15:01:08.418Z,28.23
2023-03-17T15:03:39.988Z,28.41
2023-03-17T15:06:21.904Z,27.93
2023-03-17T15:08:51.004Z,28.87
2023-03-17T15:11:23.038Z,28.47
2023-03-17T15:13:55.271Z,28.16
2023-03-17T15:16:25.091Z,28.50
2023-03-17T15:18:58.811Z,28.70
2023-03-17T15:21:33.909Z,28.97
2023-03-17T15:24:05.889Z,28.33
2023-03-17T15:26:38.543Z,28.70
2023-03-17T15:29:08.368Z,28.79
2023-03-17T15:31:37.012Z,29.16
2023-03-17T15:34:05.619Z,29.12
2023-03-17T15:36:34.693Z,29.40
2023-03-17T15:39:03.772Z,29.65
2023-03-17T15:41:32.364Z,29.04
2023-03-17T15:44:04.081Z,28.95
2023-03-17T15:46:34.016Z,29.27
2023-03-17T15:49:02.593Z,29.73
2023-03-17T15:51:31.140Z,29.53
2023-03-17T15:53:59.618Z,29.50
2023-03-17T15:56:28.196Z,29.47
2023-03-17T15:58:56.837Z,29.67
2023-03-17T16:01:28.051Z,29.59
2023-03-17T16:03:57.142Z,29.52
2023-03-17T16:06:25.945Z,29.31
2023-03-17T16:08:54.557Z,29.53
2023-03-17T16:11:28.383Z,29.13
2023-03-17T16:13:57.928Z,29.22
2023-03-17T16:16:31.990Z,29.44
2023-03-17T16:19:00.784Z,29.50
2023-03-17T16:21:31.046Z,29.47
2023-03-17T16:24:00.097Z,29.60
2023-03-17T16:26:29.017Z,29.47
2023-03-17T16:28:58.591Z,29.47
2023-03-17T16:31:30.976Z,29.56
2023-03-17T16:33:59.693Z,29.71
2023-03-17T16:36:28.340Z,29.60
2023-03-17T16:38:57.388Z,30.07
2023-03-17T16:41:27.853Z,29.77
2023-03-17T16:44:00.065Z,29.41
2023-03-17T16:46:34.788Z,29.76
2023-03-17T16:49:04.643Z,30.05
2023-03-17T16:51:33.370Z,29.94
2023-03-17T16:54:02.204Z,29.87
2023-03-17T16:56:31.901Z,29.96
2023-03-17T16:59:01.015Z,30.20
2023-03-17T17:01:31.475Z,29.92
2023-03-17T17:04:00.521Z,29.91
2023-03-17T17:06:29.124Z,30.35
2023-03-17T17:08:57.907Z,30.56
2023-03-17T17:11:26.596Z,30.47
2023-03-17T17:13:54.926Z,30.62
2023-03-17T17:16:24.642Z,30.51
2023-03-17T17:18:54.393Z,30.47
2023-03-17T17:21:33.106Z,30.89
2023-03-17T17:24:01.294Z,30.68
2023-03-17T17:26:29.430Z,30.48
2023-03-17T17:28:57.617Z,30.64
2023-03-17T17:31:25.698Z,30.66
2023-03-17T17:33:55.729Z,30.62
2023-03-17T17:36:26.628Z,30.67
2023-03-17T17:38:54.870Z,30.78
2023-03-17T17:41:23.187Z,30.59
2023-03-17T17:43:51.895Z,30.78
2023-03-17T17:46:21.562Z,30.78
2023-03-17T17:48:50.194Z,30.62
2023-03-17T17:51:19.737Z,30.74
2023-03-17T17:53:48.062Z,30.66
2023-03-17T17:56:16.616Z,30.59
2023-03-17T17:58:45.217Z,30.74
2023-03-17T18:01:14.321Z,30.55
2023-03-17T18:03:43.255Z,30.55
2023-03-17T18:06:11.850Z,30.55
2023-03-17T18:08:43.647Z,30.58
2023-03-17T18:11:12.088Z,30.70
2023-03-17T18:13:41.127Z,30.60
2023-03-17T18:16:10.871Z,30.73
2023-03-17T18:18:42.445Z,30.45
2023-03-17T18:21:11.023Z,30.93
2023-03-17T18:23:39.278Z,30.97
2023-03-17T18:26:11.413Z,31.06
2023-03-17T18:28:39.655Z,31.13
2023-03-17T18:31:10.625Z,31.17
2023-03-17T18:33:40.095Z,31.10
2023-03-17T18:36:09.064Z,31.29
2023-03-17T18:38:37.570Z,31.10
2023-03-17T18:41:08.130Z,31.04
2023-03-17T18:43:37.867Z,31.07
2023-03-17T18:46:06.536Z,31.41
2023-03-17T18:48:36.336Z,31.05
2023-03-17T18:51:07.147Z,30.99
2023-03-17T18:53:35.630Z,31.01
2023-03-17T18:56:04.657Z,30.99
2023-03-17T18:58:32.894Z,31.28
2023-03-17T19:01:02.647Z,31.28
2023-03-17T19:03:32.430Z,31.24
2023-03-17T19:06:08.354Z,31.27
2023-03-17T19:08:37.303Z,31.76
2023-03-17T19:11:06.325Z,30.96
2023-03-17T19:13:34.569Z,31.35
2023-03-17T19:16:04.376Z,31.79
2023-03-17T19:18:33.093Z,31.85
2023-03-17T19:21:01.439Z,31.89
2023-03-17T19:23:30.075Z,31.60
2023-03-17T19:25:58.269Z,31.58
2023-03-17T19:28:26.652Z,31.79
2023-03-17T19:30:56.372Z,31.81
2023-03-17T19:33:26.640Z,32.30
2023-03-17T19:35:56.160Z,32.11
2023-03-17T19:38:24.843Z,32.27
2023-03-17T19:40:53.042Z,32.13
2023-03-17T19:43:39.116Z,32.62
2023-03-17T19:46:08.984Z,32.90
2023-03-17T19:48:38.554Z,32.94
2023-03-17T19:51:08.130Z,33.12
2023-03-17T19:53:37.534Z,32.90
2023-03-17T19:56:09.103Z,33.15
2023-03-17T19:58:40.711Z,32.99
2023-03-17T20:01:28.125Z,33.36
2023-03-17T20:03:58.013Z,33.36
2023-03-17T20:06:26.160Z,33.35
2023-03-17T20:08:54.342Z,33.41
2023-03-17T20:11:22.548Z,33.59
2023-03-17T20:13:50.926Z,33.92
2023-03-17T20:16:19.101Z,33.71
2023-03-17T20:18:47.273Z,33.58
2023-03-17T20:21:16.820Z,33.34
2023-03-17T20:23:44.886Z,33.97
2023-03-17T20:26:13.193Z,33.82
2023-03-17T20:28:41.667Z,33.85
2023-03-17T20:31:09.933Z,33.86
2023-03-17T20:33:38.018Z,33.90
2023-03-17T20:36:06.333Z,33.84
2023-03-17T20:38:38.400Z,33.81
2023-03-17T20:41:08.426Z,34.37
2023-03-17T20:43:37.618Z,34.41
2023-03-17T20:46:08.918Z,34.17
2023-03-17T20:48:37.477Z,33.83
2023-03-17T20:51:06.383Z,33.92
2023-03-17T20:53:36.518Z,33.91
2023-03-17T20:56:04.945Z,33.94
2023-03-17T20:58:33.087Z,34.14
2023-03-17T21:01:01.958Z,33.81
2023-03-17T21:03:30.039Z,33.82
2023-03-17T21:05:58.316Z,34.15
2023-03-17T21:08:26.847Z,34.06
2023-03-17T21:10:56.549Z,34.01
2023-03-17T21:13:24.677Z,33.68
2023-03-17T21:15:53.326Z,33.98
2023-03-17T21:18:21.792Z,33.68
2023-03-17T21:20:50.845Z,34.06
2023-03-17T21:23:19.031Z,34.16
2023-03-17T21:25:47.913Z,33.91
2023-03-17T21:28:17.405Z,34.36
2023-03-17T21:30:45.679Z,33.86
2023-03-17T21:33:13.828Z,34.21
2023-03-17T21:35:41.971Z,34.23
2023-03-17T21:38:10.313Z,33.91
2023-03-17T21:40:38.458Z,34.53
2023-03-17T21:43:06.917Z,34.84
2023-03-17T21:45:37.044Z,34.67
2023-03-17T21:48:05.403Z,35.14
2023-03-17T21:50:33.672Z,34.66
2023-03-17T21:53:02.105Z,35.20
2023-03-17T21:55:30.221Z,35.45
2023-03-17T21:57:59.179Z,35.38
2023-03-17T22:00:33.385Z,35.47
2023-03-17T22:03:06.380Z,35.37
2023-03-17T22:05:34.639Z,35.00
2023-03-17T22:08:03.316Z,35.61
2023-03-17T22:10:32.151Z,36.26
2023-03-17T22:13:00.645Z,35.83
2023-03-17T22:15:29.325Z,36.45
2023-03-17T22:17:57.802Z,36.25
2023-03-17T22:20:27.403Z,36.64
2023-03-17T22:22:55.694Z,36.32
2023-03-17T22:25:24.156Z,36.79
2023-03-17T22:27:53.788Z,36.90
2023-03-17T22:30:21.813Z,36.64
2023-03-17T22:32:50.179Z,36.93
2023-03-17T22:35:19.714Z,36.60
2023-03-17T22:37:49.297Z,36.45
2023-03-17T22:40:17.839Z,37.35
2023-03-17T22:42:46.017Z,36.82
2023-03-17T22:45:14.199Z,36.88
2023-03-17T22:47:42.297Z,36.72
2023-03-17T22:50:11.046Z,37.08
2023-03-17T22:52:39.150Z,36.72
2023-03-17T22:55:10.538Z,37.06
2023-03-17T22:57:38.772Z,36.83
2023-03-17T23:00:09.118Z,36.86
2023-03-17T23:02:37.278Z,36.97
2023-03-17T23:05:05.699Z,37.27
2023-03-17T23:07:47.916Z,37.46
2023-03-17T23:10:22.310Z,37.58
2023-03-17T23:12:50.949Z,37.09
2023-03-17T23:15:19.854Z,37.51
2023-03-17T23:17:48.341Z,38.16
2023-03-17T23:20:16.513Z,37.84
2023-03-17T23:22:44.753Z,38.27
2023-03-17T23:25:13.719Z,38.27
2023-03-17T23:27:43.258Z,37.93
2023-03-17T23:30:13.029Z,38.86
2023-03-17T23:32:41.888Z,38.14
2023-03-17T23:35:10.535Z,38.81
2023-03-17T23:37:38.635Z,39.14
2023-03-17T23:40:07.584Z,38.91
2023-03-17T23:42:35.716Z,38.77
2023-03-17T23:45:05.421Z,38.68
2023-03-17T23:47:33.657Z,38.83
2023-03-17T23:50:02.261Z,38.69
2023-03-17T23:52:31.845Z,38.91
2023-03-17T23:55:01.117Z,38.96
2023-03-17T23:57:30.594Z,39.32
2023-03-17T23:59:58.836Z,39.44
